Terminal Aerodrome Forecast
Issued by NWS

Current Version | Previous Version | Text Only | Print | Product List | Glossary Off
Versions: 1 2 3 4 5 6 7 8 9 10 11 12 13 14 15 16 17 18 19 20 21 22 23

397
FTUS41 KILN 080324 AAA
TAFLUK
TAF AMD
KLUK 080324Z 0803/0824 22005KT P6SM BKN070 OVC120
     FM081100 24004KT P6SM VCSH BKN045 OVC080
     FM081600 26009KT P6SM -SHRA OVC045
     FM081900 27010KT 5SM -SHRA BR OVC028
     FM082200 27010KT P6SM BKN028 OVC040=

USA.gov is the U.S. government's official web portal to all federal, state and local government web resources and services.